Time;durP1;ratioP1;P1;durP2;ratioP2;P2;SDS_P1;SDS_P2;PMS_P1;PMS_P2;Temp;Humidity;BMP_temperature;BMP_pressure;BME280_temperature;BME280_humidity;BME280_pressure;Samples;Min_cycle;Max_cycle;Signal;HPM_P1;HPM_P2
2023/09/22 00:00:04;;;;;;;3.42;2.53;;;22.80;66.60;;;;;;4918311;28;92507;-84
2023/09/22 00:02:30;;;;;;;6.68;2.92;;;22.80;66.40;;;;;;4903175;28;92474;-83
2023/09/22 00:04:58;;;;;;;5.22;3.00;;;22.80;66.40;;;;;;4912910;28;92079;-84
2023/09/22 00:07:24;;;;;;;5.85;3.03;;;22.80;66.40;;;;;;4911915;28;93547;-84
2023/09/22 00:09:52;;;;;;;5.13;3.10;;;22.70;66.40;;;;;;4897888;28;95063;-84
2023/09/22 00:12:18;;;;;;;3.90;2.72;;;22.70;66.20;;;;;;4914482;28;93585;-84
2023/09/22 00:14:45;;;;;;;4.22;2.60;;;22.70;66.50;;;;;;4897402;28;92383;-84
2023/09/22 00:17:10;;;;;;;4.47;2.85;;;22.70;66.40;;;;;;4891874;28;94284;-83
2023/09/22 00:19:36;;;;;;;4.05;2.85;;;22.70;66.30;;;;;;4895123;28;93581;-84
2023/09/22 00:22:03;;;;;;;5.47;2.70;;;22.70;66.40;;;;;;4896188;28;92676;-83
2023/09/22 00:24:31;;;;;;;5.95;3.10;;;22.70;66.40;;;;;;4892701;28;92355;-84
2023/09/22 00:26:57;;;;;;;5.40;2.73;;;22.70;66.40;;;;;;4875482;28;96895;-84
2023/09/22 00:29:25;;;;;;;3.63;2.38;;;22.70;66.40;;;;;;4895104;28;93392;-83
2023/09/22 00:31:50;;;;;;;4.90;2.92;;;22.70;66.40;;;;;;4893870;28;92487;-84
2023/09/22 00:34:16;;;;;;;5.88;3.20;;;22.60;66.30;;;;;;4893910;28;93432;-84
2023/09/22 00:36:42;;;;;;;4.80;2.85;;;22.70;66.30;;;;;;4892547;28;94662;-84
2023/09/22 00:39:08;;;;;;;4.80;3.17;;;22.70;66.20;;;;;;4895062;28;92842;-83
2023/09/22 00:41:34;;;;;;;5.05;3.05;;;22.70;66.20;;;;;;4876176;28;92800;-84
2023/09/22 00:43:59;;;;;;;4.75;2.83;;;22.60;66.30;;;;;;4892188;28;93096;-84
2023/09/22 00:46:26;;;;;;;3.33;2.15;;;22.70;66.40;;;;;;4892871;28;93718;-84
2023/09/22 00:48:56;;;;;;;3.95;2.83;;;22.70;66.30;;;;;;4897512;28;93191;-83
2023/09/22 00:51:22;;;;;;;3.60;2.70;;;22.60;66.10;;;;;;4874477;28;92077;-84
2023/09/22 00:53:52;;;;;;;4.75;3.00;;;22.60;66.20;;;;;;4874196;28;92402;-84
2023/09/22 00:59:07;;;;;;;3.65;2.33;;;22.60;66.10;;;;;;4879770;28;96941;-84
2023/09/22 01:01:33;;;;;;;4.45;2.75;;;22.60;66.00;;;;;;4876370;28;93489;-83
2023/09/22 01:03:59;;;;;;;3.50;2.58;;;22.60;65.90;;;;;;4889598;28;93610;-84
2023/09/22 01:06:25;;;;;;;4.57;2.78;;;22.60;65.90;;;;;;4864978;28;94633;-84
2023/09/22 01:08:51;;;;;;;4.13;2.45;;;22.60;65.80;;;;;;4889802;28;94661;-84
2023/09/22 01:11:17;;;;;;;4.13;2.85;;;22.60;65.90;;;;;;4893469;28;92687;-84
2023/09/22 01:13:42;;;;;;;5.18;3.03;;;22.60;65.70;;;;;;4891265;28;92659;-84
2023/09/22 01:16:08;;;;;;;3.63;2.60;;;22.60;65.90;;;;;;4878417;28;92818;-83
2023/09/22 01:18:34;;;;;;;4.65;2.45;;;22.60;65.80;;;;;;4894305;28;92198;-85
2023/09/22 01:21:00;;;;;;;3.38;2.53;;;22.60;65.70;;;;;;4894324;28;92899;-83
2023/09/22 01:23:25;;;;;;;4.93;2.65;;;22.60;65.80;;;;;;4874565;28;93382;-84
2023/09/22 01:25:53;;;;;;;3.38;2.55;;;22.60;65.80;;;;;;4896260;28;93967;-84
2023/09/22 01:28:19;;;;;;;3.58;2.33;;;22.60;65.70;;;;;;4889708;28;93888;-84
2023/09/22 01:30:45;;;;;;;4.60;3.03;;;22.60;65.60;;;;;;4890468;28;93305;-84
2023/09/22 01:33:10;;;;;;;5.60;3.03;;;22.60;65.40;;;;;;4888581;28;92534;-84
2023/09/22 01:35:36;;;;;;;3.97;2.85;;;22.60;65.40;;;;;;4894843;28;93121;-84
2023/09/22 01:38:26;;;;;;;5.07;2.90;;;22.60;65.40;;;;;;4892287;28;93567;-84
2023/09/22 01:40:52;;;;;;;;;;;22.60;65.60;;;;;;4890809;28;92961;-84
2023/09/22 01:43:17;;;;;;;4.05;2.22;;;22.60;65.60;;;;;;4897308;28;91751;-84
2023/09/22 01:45:43;;;;;;;3.25;2.30;;;22.60;65.60;;;;;;4893413;28;93442;-83
2023/09/22 01:48:11;;;;;;;3.53;2.47;;;22.60;65.60;;;;;;4892487;28;92814;-83
2023/09/22 01:50:40;;;;;;;3.28;2.70;;;22.60;65.60;;;;;;4894137;28;94043;-84
2023/09/22 01:53:09;;;;;;;3.63;2.70;;;22.60;65.70;;;;;;4880924;28;92496;-83
2023/09/22 01:55:36;;;;;;;3.33;2.28;;;22.60;65.50;;;;;;4890143;28;93206;-84
2023/09/22 01:58:04;;;;;;;3.72;2.70;;;22.60;65.50;;;;;;4891023;28;92746;-84
2023/09/22 02:00:36;;;;;;;3.72;2.60;;;22.60;65.50;;;;;;4892257;28;92754;-83
2023/09/22 02:03:02;;;;;;;4.47;2.40;;;22.60;65.50;;;;;;4891697;28;93130;-83
2023/09/22 02:05:29;;;;;;;3.58;2.42;;;22.60;65.40;;;;;;4874052;28;95443;-84
2023/09/22 02:07:57;;;;;;;3.85;2.10;;;22.60;65.30;;;;;;4890531;28;93002;-84
2023/09/22 02:10:23;;;;;;;4.18;2.58;;;22.60;65.30;;;;;;4891882;28;93004;-84
2023/09/22 02:12:49;;;;;;;5.40;3.13;;;22.50;65.10;;;;;;4876727;28;93045;-84
2023/09/22 02:15:14;;;;;;;3.17;2.35;;;22.50;65.10;;;;;;4894255;28;94843;-84
2023/09/22 02:17:42;;;;;;;4.47;2.70;;;22.50;65.20;;;;;;4873605;28;94673;-84
2023/09/22 02:20:18;;;;;;;2.58;1.90;;;22.50;65.10;;;;;;4893911;28;92188;-84
2023/09/22 02:22:45;;;;;;;3.80;2.60;;;22.50;64.90;;;;;;4876116;28;92820;-84
2023/09/22 02:25:12;;;;;;;3.05;2.28;;;22.50;65.00;;;;;;4875962;28;93025;-83
2023/09/22 02:27:38;;;;;;;4.38;2.67;;;22.50;64.90;;;;;;4875761;28;93133;-84
2023/09/22 02:30:08;;;;;;;3.47;2.45;;;22.50;65.10;;;;;;4893850;28;92935;-84
2023/09/22 02:32:35;;;;;;;2.55;2.35;;;22.50;65.10;;;;;;4876924;28;92091;-84
2023/09/22 02:35:00;;;;;;;3.30;2.33;;;22.50;65.10;;;;;;4875713;28;93564;-84
2023/09/22 02:37:27;;;;;;;2.67;1.90;;;22.50;65.00;;;;;;4891807;28;95197;-84
2023/09/22 02:39:53;;;;;;;4.05;2.60;;;22.50;64.90;;;;;;4894433;28;93697;-84
2023/09/22 02:42:19;;;;;;;4.82;2.33;;;22.50;64.90;;;;;;4891987;28;92080;-84
2023/09/22 02:44:44;;;;;;;2.92;1.95;;;22.50;64.80;;;;;;4880286;28;95461;-83
2023/09/22 02:47:10;;;;;;;3.83;2.22;;;22.50;64.60;;;;;;4897729;28;93431;-84
2023/09/22 02:49:36;;;;;;;3.03;1.90;;;22.50;64.50;;;;;;4879298;28;92139;-84
2023/09/22 02:52:04;;;;;;;3.25;2.00;;;22.50;64.60;;;;;;4896269;28;92768;-84
2023/09/22 02:54:30;;;;;;;4.50;2.63;;;22.50;64.70;;;;;;4879505;28;94111;-84
2023/09/22 02:56:55;;;;;;;3.55;2.17;;;22.50;64.70;;;;;;4897724;28;94148;-84
2023/09/22 02:59:22;;;;;;;4.07;2.30;;;22.40;65.60;;;;;;4898989;28;92483;-84
2023/09/22 03:01:48;;;;;;;2.85;2.10;;;22.50;64.80;;;;;;4877571;28;92945;-83
2023/09/22 03:04:14;;;;;;;3.50;2.03;;;22.50;64.80;;;;;;4895565;28;93927;-84
2023/09/22 03:06:40;;;;;;;2.88;2.03;;;22.40;64.70;;;;;;4876044;28;94530;-84
2023/09/22 03:09:09;;;;;;;3.55;2.28;;;22.40;64.70;;;;;;4898160;28;92909;-83
2023/09/22 03:11:38;;;;;;;;;;;22.50;64.80;;;;;;4884097;28;92829;-85
2023/09/22 03:14:04;;;;;;;3.90;2.40;;;22.50;65.60;;;;;;4898038;28;95751;-84
2023/09/22 03:16:30;;;;;;;3.17;2.15;;;22.50;64.70;;;;;;4881648;28;93458;-84
2023/09/22 03:18:56;;;;;;;3.58;2.38;;;22.40;64.70;;;;;;4883812;28;92424;-84
2023/09/22 03:21:23;;;;;;;3.00;2.13;;;22.40;64.70;;;;;;4883098;28;92169;-84
2023/09/22 03:23:50;;;;;;;2.92;2.05;;;22.40;64.70;;;;;;4903458;28;93432;-84
2023/09/22 03:26:17;;;;;;;3.00;2.10;;;22.40;64.80;;;;;;4899934;28;92807;-84
2023/09/22 03:28:43;;;;;;;4.30;2.38;;;22.40;64.70;;;;;;4898677;28;93730;-84
2023/09/22 03:31:09;;;;;;;2.92;2.03;;;22.40;64.50;;;;;;4899533;28;92609;-83
2023/09/22 03:33:35;;;;;;;4.53;2.08;;;22.50;64.50;;;;;;4884661;28;95419;-84
2023/09/22 03:36:01;;;;;;;2.92;1.95;;;22.50;64.50;;;;;;4900258;28;92704;-84
2023/09/22 03:38:28;;;;;;;3.53;2.10;;;22.40;64.60;;;;;;4899145;28;92409;-83
2023/09/22 03:41:00;;;;;;;3.05;2.00;;;22.40;64.50;;;;;;4899670;28;92708;-84
2023/09/22 03:43:27;;;;;;;3.75;1.95;;;22.40;64.50;;;;;;4898863;28;93648;-83
2023/09/22 03:45:56;;;;;;;2.30;1.80;;;22.40;64.60;;;;;;4881468;28;94776;-84
2023/09/22 03:48:22;;;;;;;4.82;2.35;;;22.40;64.60;;;;;;4895299;28;93060;-84
2023/09/22 03:50:48;;;;;;;2.55;1.75;;;22.40;64.50;;;;;;4876984;28;93540;-83
2023/09/22 03:53:14;;;;;;;4.07;1.90;;;22.40;64.40;;;;;;4897765;28;94995;-84
2023/09/22 03:55:40;;;;;;;3.30;1.83;;;22.40;64.40;;;;;;4894384;28;93281;-83
2023/09/22 03:58:06;;;;;;;2.25;1.92;;;22.40;64.50;;;;;;4893151;28;92511;-84
2023/09/22 04:00:32;;;;;;;2.33;2.00;;;22.40;64.50;;;;;;4897000;28;92305;-84
2023/09/22 04:03:01;;;;;;;2.28;1.70;;;22.40;64.20;;;;;;4894158;28;93802;-84
2023/09/22 04:05:27;;;;;;;3.60;1.88;;;22.40;64.40;;;;;;4879587;28;94253;-84
2023/09/22 04:07:57;;;;;;;2.42;1.67;;;22.40;64.20;;;;;;4886117;28;93124;-84
2023/09/22 04:10:23;;;;;;;2.05;1.67;;;22.40;64.20;;;;;;4879145;28;91596;-84
2023/09/22 04:12:50;;;;;;;3.00;2.20;;;22.40;64.40;;;;;;4892197;28;95556;-85
2023/09/22 04:15:16;;;;;;;3.53;2.10;;;22.40;65.10;;;;;;4893325;28;92698;-85
2023/09/22 04:17:42;;;;;;;2.15;1.70;;;22.40;64.30;;;;;;4893597;28;93516;-84
2023/09/22 04:20:10;;;;;;;2.33;1.63;;;22.40;64.30;;;;;;4891377;28;92469;-84
2023/09/22 04:22:37;;;;;;;2.03;1.70;;;22.40;64.50;;;;;;4890811;28;93975;-84
2023/09/22 04:25:11;;;;;;;2.88;1.88;;;22.40;64.40;;;;;;4887941;28;96334;-84
2023/09/22 04:27:44;;;;;;;2.83;1.70;;;22.40;64.60;;;;;;4877594;28;92798;-84
2023/09/22 04:30:16;;;;;;;2.80;1.95;;;22.40;64.50;;;;;;4895096;28;92876;-84
2023/09/22 04:32:45;;;;;;;2.50;1.60;;;22.40;64.50;;;;;;4886329;28;96095;-84
2023/09/22 04:35:14;;;;;;;3.33;2.03;;;22.40;64.60;;;;;;4888730;28;93311;-85
2023/09/22 04:37:40;;;;;;;2.88;1.80;;;22.40;64.60;;;;;;4890821;28;92575;-85
2023/09/22 04:40:23;;;;;;;2.42;1.58;;;22.40;64.50;;;;;;4875570;28;93305;-85
2023/09/22 04:42:53;;;;;;;2.70;1.60;;;22.30;64.50;;;;;;4877168;28;96149;-84
2023/09/22 04:45:19;;;;;;;2.35;1.60;;;22.40;64.50;;;;;;4876516;28;95498;-85
2023/09/22 04:47:48;;;;;;;2.53;1.70;;;22.30;64.50;;;;;;4890044;28;93056;-85
2023/09/22 04:50:17;;;;;;;2.85;1.80;;;22.30;64.40;;;;;;4872459;28;92376;-85
2023/09/22 04:52:44;;;;;;;2.15;1.50;;;22.30;64.40;;;;;;4874240;28;93087;-85
2023/09/22 04:55:10;;;;;;;3.55;2.10;;;22.30;64.50;;;;;;4894380;28;95187;-85
2023/09/22 04:57:36;;;;;;;2.17;1.92;;;22.30;64.60;;;;;;4895478;28;92441;-85
2023/09/22 05:00:13;;;;;;;3.53;2.35;;;22.30;64.50;;;;;;4877334;28;91287;-85
2023/09/22 05:02:39;;;;;;;3.10;1.92;;;22.30;65.00;;;;;;4874230;28;93886;-85
2023/09/22 05:05:06;;;;;;;2.90;1.92;;;22.30;64.30;;;;;;4893517;28;93291;-85
2023/09/22 05:07:36;;;;;;;2.28;1.60;;;22.30;64.30;;;;;;4873851;28;94329;-85
2023/09/22 05:10:02;;;;;;;2.90;2.05;;;22.30;64.30;;;;;;4893115;28;92482;-85
2023/09/22 05:12:30;;;;;;;2.20;1.55;;;22.30;64.20;;;;;;4890084;28;93021;-85
2023/09/22 05:14:55;;;;;;;2.55;1.55;;;22.30;64.20;;;;;;4890881;28;93208;-85
2023/09/22 05:17:22;;;;;;;1.73;1.48;;;22.30;64.00;;;;;;4888398;28;93086;-85
2023/09/22 05:19:48;;;;;;;2.70;1.70;;;22.30;64.30;;;;;;4874341;28;92629;-84
2023/09/22 05:22:13;;;;;;;2.13;1.40;;;22.30;64.30;;;;;;4873801;28;94605;-85
2023/09/22 05:24:39;;;;;;;1.95;1.52;;;22.30;65.00;;;;;;4876784;28;92393;-85
2023/09/22 05:27:07;;;;;;;2.17;1.45;;;22.30;64.10;;;;;;4889229;28;92542;-85
2023/09/22 05:29:33;;;;;;;2.80;1.87;;;22.30;64.00;;;;;;4875735;28;93297;-86
2023/09/22 05:31:59;;;;;;;2.15;1.52;;;22.30;64.20;;;;;;4874473;28;93750;-85
2023/09/22 05:34:24;;;;;;;2.75;1.65;;;22.30;64.20;;;;;;4892802;28;96082;-85
2023/09/22 05:36:50;;;;;;;1.88;1.67;;;22.20;64.20;;;;;;4895076;28;93283;-85
2023/09/22 05:39:18;;;;;;;2.25;1.50;;;22.20;64.10;;;;;;4872287;28;93337;-85
2023/09/22 05:41:51;;;;;;;2.10;1.27;;;22.30;64.10;;;;;;4893028;28;94320;-85
2023/09/22 05:44:17;;;;;;;1.77;1.40;;;22.30;64.10;;;;;;4893190;28;93078;-85
2023/09/22 05:46:49;;;;;;;1.65;1.40;;;22.30;64.00;;;;;;4889613;28;92695;-85
2023/09/22 05:49:15;;;;;;;2.05;1.80;;;22.30;64.00;;;;;;4891535;28;91855;-86
2023/09/22 05:51:41;;;;;;;1.38;1.17;;;22.20;64.00;;;;;;4872803;28;93316;-85
2023/09/22 05:54:08;;;;;;;2.20;1.60;;;22.20;64.00;;;;;;4892101;28;93082;-85
2023/09/22 05:56:34;;;;;;;3.25;1.88;;;22.20;64.00;;;;;;4870524;28;93545;-85
2023/09/22 05:59:00;;;;;;;2.40;1.65;;;22.20;63.90;;;;;;4892538;28;92835;-86
2023/09/22 06:01:27;;;;;;;2.35;1.67;;;22.20;63.80;;;;;;4878099;28;94935;-85
2023/09/22 06:03:53;;;;;;;1.95;1.27;;;22.20;64.00;;;;;;4892283;28;93684;-85
2023/09/22 06:06:19;;;;;;;2.60;1.75;;;22.20;63.70;;;;;;4891610;28;92368;-85
2023/09/22 06:08:45;;;;;;;1.98;1.42;;;22.30;64.00;;;;;;4873662;28;92401;-86
2023/09/22 06:11:20;;;;;;;2.90;1.77;;;22.20;63.70;;;;;;4888231;28;93572;-85
2023/09/22 06:13:46;;;;;;;1.52;1.20;;;22.30;63.90;;;;;;4891832;28;92750;-85
2023/09/22 06:16:12;;;;;;;2.00;1.48;;;22.30;63.80;;;;;;4873252;28;93244;-85
2023/09/22 06:18:38;;;;;;;2.97;1.30;;;22.40;63.70;;;;;;4894102;28;92508;-84
2023/09/22 06:21:06;;;;;;;1.75;1.50;;;22.40;63.50;;;;;;4880478;28;95635;-85
2023/09/22 06:23:31;;;;;;;1.77;1.30;;;22.40;63.40;;;;;;4895527;28;94797;-85
2023/09/22 06:26:02;;;;;;;2.38;1.50;;;22.40;63.30;;;;;;4893552;28;92640;-84
2023/09/22 06:28:29;;;;;;;1.58;1.30;;;22.40;63.20;;;;;;4895349;28;92794;-85
2023/09/22 06:30:59;;;;;;;1.50;1.30;;;22.40;63.40;;;;;;4883367;28;95038;-85
2023/09/22 06:33:27;;;;;;;2.85;1.80;;;22.40;63.20;;;;;;4896519;28;94484;-85
2023/09/22 06:36:01;;;;;;;2.10;1.65;;;22.50;63.30;;;;;;4879694;28;92882;-86
2023/09/22 06:38:27;;;;;;;1.63;1.40;;;22.50;63.10;;;;;;4890820;28;92499;-86
2023/09/22 06:40:56;;;;;;;1.75;1.42;;;22.50;63.10;;;;;;4891725;28;92883;-85
2023/09/22 06:43:25;;;;;;;1.70;1.10;;;22.60;62.80;;;;;;4878355;28;94604;-84
2023/09/22 06:45:51;;;;;;;2.15;1.10;;;22.60;62.80;;;;;;4897948;28;93596;-85
2023/09/22 06:48:22;;;;;;;2.40;1.45;;;22.60;62.80;;;;;;4895600;28;92521;-86
2023/09/22 06:50:51;;;;;;;2.00;1.48;;;22.60;63.10;;;;;;4891442;28;94336;-86
2023/09/22 06:53:18;;;;;;;1.85;1.50;;;22.60;63.00;;;;;;4890985;28;93029;-85
2023/09/22 06:55:44;;;;;;;2.15;1.48;;;22.60;63.00;;;;;;4875762;28;92723;-85
2023/09/22 06:58:10;;;;;;;1.80;1.27;;;22.60;62.80;;;;;;4895662;28;93058;-86
2023/09/22 07:00:36;;;;;;;2.45;1.15;;;22.70;62.50;;;;;;4895114;28;92709;-86
2023/09/22 07:03:01;;;;;;;4.35;1.40;;;22.70;60.00;;;;;;4875786;28;95323;-85
2023/09/22 07:05:27;;;;;;;4.15;1.10;;;22.70;59.80;;;;;;4892185;28;92324;-83
2023/09/22 07:07:52;;;;;;;5.30;1.58;;;22.70;59.50;;;;;;4894596;28;92813;-85
2023/09/22 07:10:19;;;;;;;5.90;1.75;;;22.70;58.90;;;;;;4897146;28;93990;-84
2023/09/22 07:12:45;;;;;;;6.13;1.45;;;22.80;59.00;;;;;;4879796;28;95762;-86
2023/09/22 07:15:11;;;;;;;5.22;1.63;;;22.80;58.20;;;;;;4894095;28;92652;-85
2023/09/22 07:17:37;;;;;;;8.75;1.90;;;22.80;58.00;;;;;;4894949;28;92489;-84
2023/09/22 07:20:04;;;;;;;4.25;1.38;;;22.80;58.30;;;;;;4892686;28;96333;-84
2023/09/22 07:22:33;;;;;;;2.72;1.30;;;22.80;58.70;;;;;;4879939;28;93642;-84
2023/09/22 07:25:03;;;;;;;6.65;2.08;;;22.80;58.40;;;;;;4896726;28;92818;-85
2023/09/22 07:27:28;;;;;;;5.70;1.65;;;22.80;58.40;;;;;;4895458;28;92047;-84
2023/09/22 07:29:54;;;;;;;4.05;1.48;;;22.90;57.90;;;;;;4892031;28;94125;-83
2023/09/22 07:32:20;;;;;;;4.90;0.95;;;22.90;58.40;;;;;;4890409;28;92442;-83
2023/09/22 07:34:48;;;;;;;6.32;1.15;;;23.00;57.90;;;;;;4901940;28;93475;-83
2023/09/22 07:37:16;;;;;;;4.00;0.90;;;22.90;57.90;;;;;;4921744;28;92356;-83
2023/09/22 07:39:41;;;;;;;3.08;0.93;;;22.90;57.30;;;;;;4904400;28;94997;-83
2023/09/22 07:42:09;;;;;;;2.10;1.02;;;22.90;58.10;;;;;;4912198;28;93070;-83
2023/09/22 07:44:35;;;;;;;2.40;0.95;;;22.90;57.70;;;;;;4896951;28;93324;-83
2023/09/22 07:47:03;;;;;;;5.85;1.42;;;23.00;58.50;;;;;;4891497;28;93561;-83
2023/09/22 07:49:29;;;;;;;3.25;1.00;;;23.00;57.10;;;;;;4870857;28;96382;-83
2023/09/22 07:51:55;;;;;;;1.80;0.88;;;23.00;57.30;;;;;;4894498;28;93542;-83
2023/09/22 07:54:21;;;;;;;5.53;1.10;;;23.00;56.80;;;;;;4876231;28;93172;-83
2023/09/22 07:56:47;;;;;;;3.25;1.60;;;23.00;56.10;;;;;;4875817;28;93097;-83
2023/09/22 07:59:14;;;;;;;3.45;0.80;;;23.10;56.10;;;;;;4890491;28;94678;-83
2023/09/22 08:01:42;;;;;;;4.72;1.30;;;23.10;55.80;;;;;;4891380;28;93769;-84
2023/09/22 08:04:09;;;;;;;3.78;0.77;;;23.20;55.90;;;;;;4875533;28;92439;-85
2023/09/22 08:06:35;;;;;;;4.10;0.90;;;23.10;55.10;;;;;;4889735;28;92819;-84
2023/09/22 08:09:03;;;;;;;2.50;0.90;;;23.10;55.20;;;;;;4885228;28;96451;-84
2023/09/22 08:11:29;;;;;;;2.30;1.20;;;23.00;54.90;;;;;;4888631;28;94106;-85
2023/09/22 08:14:03;;;;;;;2.75;0.90;;;23.00;55.10;;;;;;4891784;28;93100;-84
2023/09/22 08:16:28;;;;;;;4.05;1.00;;;23.10;55.20;;;;;;4891600;28;92483;-83
2023/09/22 08:18:54;;;;;;;5.30;1.13;;;23.10;55.30;;;;;;4891968;28;93462;-83
2023/09/22 08:21:21;;;;;;;2.65;0.95;;;23.10;54.20;;;;;;4891595;28;92606;-83
2023/09/22 08:23:47;;;;;;;2.15;0.77;;;23.00;54.00;;;;;;4890847;28;93833;-83
2023/09/22 08:26:17;;;;;;;2.45;0.65;;;23.10;54.10;;;;;;4893877;28;93231;-83
2023/09/22 08:28:46;;;;;;;2.15;0.77;;;23.10;54.00;;;;;;4894360;28;93081;-84
2023/09/22 08:31:12;;;;;;;3.13;0.63;;;23.10;54.10;;;;;;4885983;28;94981;-85
2023/09/22 08:33:38;;;;;;;1.88;1.15;;;23.10;53.60;;;;;;4892223;28;93246;-83
2023/09/22 08:36:04;;;;;;;2.28;0.80;;;23.10;53.40;;;;;;4891411;28;92653;-84
2023/09/22 08:38:34;;;;;;;3.22;0.88;;;23.20;53.20;;;;;;4892179;28;94777;-83
2023/09/22 08:41:03;;;;;;;1.23;0.70;;;23.00;53.00;;;;;;4890734;28;92961;-84
2023/09/22 08:43:29;;;;;;;2.42;0.70;;;23.10;52.70;;;;;;4892420;28;92505;-83
2023/09/22 08:45:55;;;;;;;2.67;0.70;;;23.00;52.90;;;;;;4893347;28;93180;-84
2023/09/22 08:48:24;;;;;;;1.40;0.60;;;23.00;53.10;;;;;;4892253;28;95163;-83
2023/09/22 08:50:49;;;;;;;1.98;1.15;;;23.00;53.10;;;;;;4889843;28;93893;-82
2023/09/22 08:53:19;;;;;;;0.95;0.60;;;22.90;54.50;;;;;;4893903;28;92432;-82
2023/09/22 08:55:44;;;;;;;;;;;22.90;55.00;;;;;;4891866;28;92536;-83
2023/09/22 08:58:10;;;;;;;2.47;1.00;;;22.90;55.00;;;;;;4893199;28;92697;-82
2023/09/22 09:00:36;;;;;;;4.18;0.70;;;22.90;54.80;;;;;;4892322;28;93085;-83
2023/09/22 09:03:09;;;;;;;13.07;2.38;;;22.90;54.80;;;;;;4876791;28;92743;-83
2023/09/22 09:05:39;;;;;;;8.25;2.38;;;23.00;54.80;;;;;;4874097;28;92305;-83
2023/09/22 09:08:14;;;;;;;22.58;5.20;;;23.00;54.40;;;;;;4892690;28;92391;-84
2023/09/22 09:10:42;;;;;;;28.23;4.53;;;23.00;55.10;;;;;;4890893;28;94529;-83
2023/09/22 09:13:15;;;;;;;19.05;4.32;;;23.00;55.10;;;;;;4896691;28;93344;-82
2023/09/22 09:15:47;;;;;;;29.83;5.10;;;23.00;55.20;;;;;;4899445;28;93166;-82
2023/09/22 09:18:24;;;;;;;18.35;4.45;;;23.00;55.30;;;;;;4897856;28;92866;-82
2023/09/22 09:21:15;;;;;;;21.40;4.38;;;22.90;55.70;;;;;;4893172;28;92773;-82
2023/09/22 09:23:54;;;;;;;24.73;4.70;;;22.90;55.80;;;;;;4897509;28;94781;-82
2023/09/22 09:26:31;;;;;;;26.10;4.97;;;22.90;55.80;;;;;;4894627;28;93155;-83
2023/09/22 09:28:58;;;;;;;32.85;6.03;;;22.90;55.70;;;;;;4891705;28;93632;-83
2023/09/22 09:31:45;;;;;;;20.05;4.15;;;22.90;55.50;;;;;;4873904;28;94943;-82
2023/09/22 09:34:11;;;;;;;23.60;5.13;;;22.90;55.20;;;;;;4888256;28;92746;-82
2023/09/22 09:36:36;;;;;;;23.75;4.80;;;22.80;55.10;;;;;;4877004;28;93164;-84
2023/09/22 09:39:03;;;;;;;17.00;3.95;;;22.90;54.80;;;;;;4892400;28;93859;-80
2023/09/22 09:41:30;;;;;;;17.33;4.63;;;23.00;54.90;;;;;;4892366;28;94680;-81
2023/09/22 09:43:58;;;;;;;17.42;4.30;;;23.00;54.60;;;;;;4890690;28;93002;-81
2023/09/22 09:46:26;;;;;;;20.65;4.15;;;23.00;54.70;;;;;;4892629;28;93227;-81
2023/09/22 09:48:55;;;;;;;14.15;3.72;;;23.00;54.90;;;;;;4894526;28;95654;-80
2023/09/22 09:51:24;;;;;;;15.65;3.13;;;23.00;55.30;;;;;;4894009;28;95899;-81
2023/09/22 09:53:52;;;;;;;15.10;3.13;;;23.00;55.00;;;;;;4874899;28;93188;-81
2023/09/22 09:56:18;;;;;;;14.37;2.97;;;23.10;54.90;;;;;;4889598;28;91892;-82
2023/09/22 09:58:48;;;;;;;12.88;3.10;;;23.10;55.30;;;;;;4895191;28;95853;-81
2023/09/22 10:01:14;;;;;;;11.65;3.50;;;23.10;55.00;;;;;;4875950;28;96204;-81
2023/09/22 10:03:40;;;;;;;12.13;3.13;;;23.00;55.00;;;;;;4888415;28;93682;-82
2023/09/22 10:06:09;;;;;;;12.98;3.45;;;23.00;55.10;;;;;;4893419;28;92797;-81
2023/09/22 10:08:37;;;;;;;10.63;3.33;;;23.00;55.20;;;;;;4891155;28;93780;-80
2023/09/22 10:11:05;;;;;;;11.63;3.23;;;23.00;55.20;;;;;;4891435;28;92335;-83
2023/09/22 10:13:34;;;;;;;10.45;2.65;;;23.00;55.50;;;;;;4892461;28;92379;-82
2023/09/22 10:16:04;;;;;;;11.55;2.92;;;23.00;55.60;;;;;;4879424;28;93073;-82
2023/09/22 10:18:46;;;;;;;8.38;2.42;;;23.00;55.80;;;;;;4892905;28;93238;-84
2023/09/22 10:21:46;;;;;;;6.82;1.65;;;23.10;55.70;;;;;;4870721;28;93808;-83
2023/09/22 10:24:23;;;;;;;9.60;2.85;;;23.10;54.30;;;;;;4895003;28;92261;-84
2023/09/22 10:27:07;;;;;;;9.63;2.65;;;23.10;55.40;;;;;;4893146;28;92191;-82
2023/09/22 10:29:34;;;;;;;6.30;2.45;;;23.10;55.10;;;;;;4903120;28;94055;-83
2023/09/22 10:32:18;;;;;;;12.55;3.10;;;23.10;55.20;;;;;;4900058;28;93361;-83
2023/09/22 10:35:09;;;;;;;9.88;2.40;;;23.10;55.20;;;;;;4899035;28;92707;-82
2023/09/22 10:37:36;;;;;;;6.63;1.88;;;23.00;55.20;;;;;;4884619;28;92511;-82
2023/09/22 10:40:12;;;;;;;7.38;2.45;;;23.00;55.30;;;;;;4902673;28;92892;-82
2023/09/22 10:42:43;;;;;;;5.30;1.73;;;23.00;55.30;;;;;;4925574;28;97095;-83
2023/09/22 10:45:10;;;;;;;6.47;2.40;;;23.00;55.50;;;;;;4919345;28;92857;-83
2023/09/22 10:47:39;;;;;;;7.95;2.28;;;22.90;55.60;;;;;;4890689;28;91631;-83
2023/09/22 10:50:31;;;;;;;6.55;1.70;;;22.90;55.70;;;;;;4899821;28;93252;-83
2023/09/22 10:53:00;;;;;;;6.03;2.10;;;23.00;55.60;;;;;;4897682;28;95010;-82
2023/09/22 10:55:37;;;;;;;6.35;3.00;;;23.00;55.60;;;;;;4882654;28;93531;-83
2023/09/22 10:58:15;;;;;;;7.55;2.10;;;22.90;55.70;;;;;;4894143;28;93175;-84
2023/09/22 11:01:04;;;;;;;7.27;1.80;;;23.00;55.90;;;;;;4896707;28;97907;-83
2023/09/22 11:03:33;;;;;;;5.30;1.63;;;22.90;55.80;;;;;;4890923;28;94641;-83
2023/09/22 11:06:06;;;;;;;5.43;2.43;;;23.00;56.00;;;;;;4912711;28;92872;-83
2023/09/22 11:08:33;;;;;;;5.72;2.00;;;22.90;56.10;;;;;;4904896;28;92622;-82
2023/09/22 11:11:00;;;;;;;6.93;2.00;;;22.90;56.10;;;;;;4924382;28;94197;-83
2023/09/22 11:13:27;;;;;;;6.88;1.92;;;22.90;56.10;;;;;;4913481;28;94788;-82
2023/09/22 11:15:56;;;;;;;5.68;1.63;;;23.00;56.10;;;;;;4920678;28;92891;-83
2023/09/22 11:18:32;;;;;;;7.47;1.92;;;22.90;56.10;;;;;;4920547;28;92351;-83
2023/09/22 11:21:20;;;;;;;7.97;2.25;;;23.00;56.20;;;;;;4921068;28;94202;-83
2023/09/22 11:23:46;;;;;;;5.10;1.83;;;22.90;56.10;;;;;;4914941;28;96222;-83
2023/09/22 11:26:13;;;;;;;7.10;2.17;;;23.00;56.30;;;;;;4907243;28;92572;-83
2023/09/22 11:28:44;;;;;;;7.85;2.22;;;23.00;56.00;;;;;;4929115;28;93211;-83
2023/09/22 11:31:14;;;;;;;5.35;2.22;;;22.90;56.30;;;;;;4918678;28;92801;-83
2023/09/22 11:33:41;;;;;;;3.67;1.60;;;22.90;56.20;;;;;;4923624;28;93903;-83
2023/09/22 11:36:10;;;;;;;5.05;1.85;;;22.90;56.30;;;;;;4905609;28;92374;-83
2023/09/22 11:38:45;;;;;;;4.95;1.48;;;23.00;56.30;;;;;;4921612;28;92724;-83
2023/09/22 11:41:14;;;;;;;5.70;2.08;;;23.00;56.50;;;;;;4917704;28;97700;-83
2023/09/22 11:43:42;;;;;;;4.68;1.65;;;23.00;56.40;;;;;;4919908;28;93099;-83
2023/09/22 11:46:25;;;;;;;4.80;2.00;;;23.00;56.40;;;;;;4904306;28;93821;-83
2023/09/22 11:49:05;;;;;;;4.18;1.60;;;23.00;56.50;;;;;;4922423;28;92526;-83
2023/09/22 11:51:48;;;;;;;2.65;1.23;;;23.00;56.50;;;;;;4902949;28;100691;-83
2023/09/22 11:54:22;;;;;;;4.85;1.90;;;22.90;56.40;;;;;;4918359;28;92791;-83
2023/09/22 11:56:50;;;;;;;4.03;1.52;;;23.00;56.40;;;;;;4925725;28;93265;-83
2023/09/22 11:59:20;;;;;;;3.53;1.50;;;22.90;56.40;;;;;;4921788;28;92444;-83
2023/09/22 12:01:47;;;;;;;6.13;1.75;;;23.00;56.40;;;;;;4917899;28;93345;-83
2023/09/22 12:04:13;;;;;;;6.50;1.70;;;22.90;56.40;;;;;;4923877;28;92790;-83
2023/09/22 12:06:40;;;;;;;8.43;2.40;;;22.90;56.50;;;;;;4901941;28;92833;-84
2023/09/22 12:09:11;;;;;;;3.63;1.25;;;22.90;56.50;;;;;;4920553;28;92709;-83
2023/09/22 12:11:38;;;;;;;6.45;1.95;;;22.90;56.70;;;;;;4919544;28;94530;-83
2023/09/22 12:14:04;;;;;;;3.53;1.70;;;22.90;56.80;;;;;;4920898;28;94477;-83
2023/09/22 12:16:30;;;;;;;5.20;1.70;;;22.90;56.60;;;;;;4921624;28;93139;-84
2023/09/22 12:18:57;;;;;;;4.55;1.40;;;23.00;56.70;;;;;;4919280;28;92882;-83
2023/09/22 12:21:25;;;;;;;3.35;1.50;;;22.90;56.60;;;;;;4918774;28;93526;-83
2023/09/22 12:23:51;;;;;;;4.43;1.83;;;22.90;56.70;;;;;;4919516;28;95071;-83
2023/09/22 12:26:16;;;;;;;4.35;1.40;;;22.90;56.70;;;;;;4905151;28;92284;-83
2023/09/22 12:28:42;;;;;;;3.67;1.33;;;22.90;56.60;;;;;;4918287;28;91634;-83
2023/09/22 12:31:09;;;;;;;4.07;1.30;;;22.90;56.60;;;;;;4917595;28;93152;-83
2023/09/22 12:33:35;;;;;;;3.17;1.60;;;22.90;56.90;;;;;;4928086;28;94107;-83
2023/09/22 12:36:01;;;;;;;5.40;1.63;;;22.90;56.90;;;;;;4905639;28;93696;-84
2023/09/22 12:38:28;;;;;;;4.88;1.52;;;22.90;56.90;;;;;;4919874;28;92849;-84
2023/09/22 12:40:53;;;;;;;3.20;1.40;;;22.90;56.90;;;;;;4915827;28;92759;-83
2023/09/22 12:43:19;;;;;;;5.72;1.38;;;22.90;57.00;;;;;;4922618;28;93872;-84
2023/09/22 12:45:45;;;;;;;4.95;1.70;;;22.90;57.00;;;;;;4921781;28;92413;-83
2023/09/22 12:48:12;;;;;;;4.07;1.50;;;22.80;57.00;;;;;;4916000;28;92501;-83
2023/09/22 12:50:37;;;;;;;2.63;1.10;;;22.80;57.10;;;;;;4923345;28;94183;-84
2023/09/22 12:53:03;;;;;;;5.15;1.35;;;22.80;57.00;;;;;;4925118;28;95538;-83